Terminal Aerodrome Forecast
Issued by NWS

Home | Current Version | Previous Version | Text Only | Print | Product List | Glossary On
Versions: 1 2 3 4 5 6 7 8 9 10 11 12 13
000
FTUS45 KRIW 242300
TAFRKS
TAF
KRKS 242320Z 2500/2524 05009KT 5SM -RA BR SCT013 OVC025
      TEMPO 2500/2502 3SM RA BR SCT008 BKN013
     FM251600 28009KT P6SM SCT020 BKN050=

USA.gov is the U.S. government's official web portal to all federal, state and local government web resources and services.